sensor_id;sensor_type;location;lat;lon;timestamp;P1;durP1;ratioP1;P2;durP2;ratioP2
40248;SDS011;25969;49.970;11.062;2023-06-22T04:06:30;12.75;;;11.32;;
40248;SDS011;25969;49.970;11.062;2023-06-22T04:16:31;15.68;;;10.48;;
40248;SDS011;25969;49.970;11.062;2023-06-22T04:26:32;14.57;;;11.38;;
40248;SDS011;25969;49.970;11.062;2023-06-22T04:36:38;16.00;;;11.05;;
40248;SDS011;25969;49.970;11.062;2023-06-22T04:46:40;11.75;;;10.05;;
40248;SDS011;25969;49.970;11.062;2023-06-22T04:56:41;13.52;;;10.90;;
40248;SDS011;25969;49.970;11.062;2023-06-22T05:06:42;14.35;;;10.13;;
40248;SDS011;25969;49.970;11.062;2023-06-22T05:16:43;17.55;;;11.15;;
40248;SDS011;25969;49.970;11.062;2023-06-22T05:26:44;13.93;;;10.63;;
40248;SDS011;25969;49.970;11.062;2023-06-22T05:36:44;12.75;;;9.77;;
40248;SDS011;25969;49.970;11.062;2023-06-22T05:46:45;13.23;;;9.63;;
40248;SDS011;25969;49.970;11.062;2023-06-22T05:56:46;12.43;;;8.88;;
40248;SDS011;25969;49.970;11.062;2023-06-22T06:06:47;11.48;;;8.38;;
40248;SDS011;25969;49.970;11.062;2023-06-22T06:16:48;11.20;;;8.45;;
40248;SDS011;25969;49.970;11.062;2023-06-22T06:26:49;10.13;;;8.02;;
40248;SDS011;25969;49.970;11.062;2023-06-22T06:36:50;8.75;;;6.90;;
40248;SDS011;25969;49.970;11.062;2023-06-22T06:46:51;8.38;;;7.15;;
40248;SDS011;25969;49.970;11.062;2023-06-22T06:56:52;7.88;;;6.50;;
40248;SDS011;25969;49.970;11.062;2023-06-22T07:06:52;7.45;;;6.70;;
40248;SDS011;25969;49.970;11.062;2023-06-22T07:16:53;6.90;;;6.00;;
40248;SDS011;25969;49.970;11.062;2023-06-22T07:26:54;10.18;;;6.30;;
40248;SDS011;25969;49.970;11.062;2023-06-22T07:36:55;9.60;;;5.63;;
40248;SDS011;25969;49.970;11.062;2023-06-22T07:46:55;10.25;;;5.53;;
40248;SDS011;25969;49.970;11.062;2023-06-22T07:56:56;6.20;;;5.60;;
40248;SDS011;25969;49.970;11.062;2023-06-22T08:06:57;6.57;;;5.18;;
40248;SDS011;25969;49.970;11.062;2023-06-22T08:16:58;10.18;;;5.70;;
40248;SDS011;25969;49.970;11.062;2023-06-22T08:26:58;6.78;;;5.45;;
40248;SDS011;25969;49.970;11.062;2023-06-22T08:36:59;7.43;;;5.80;;
40248;SDS011;25969;49.970;11.062;2023-06-22T08:47:00;6.50;;;5.13;;
40248;SDS011;25969;49.970;11.062;2023-06-22T08:57:02;8.13;;;4.80;;
40248;SDS011;25969;49.970;11.062;2023-06-22T09:07:03;7.50;;;5.03;;
40248;SDS011;25969;49.970;11.062;2023-06-22T09:17:04;8.20;;;4.60;;
40248;SDS011;25969;49.970;11.062;2023-06-22T09:27:05;6.30;;;4.80;;
40248;SDS011;25969;49.970;11.062;2023-06-22T09:37:06;5.72;;;5.03;;
40248;SDS011;25969;49.970;11.062;2023-06-22T09:47:07;7.38;;;4.25;;
40248;SDS011;25969;49.970;11.062;2023-06-22T09:57:08;5.10;;;4.20;;
40248;SDS011;25969;49.970;11.062;2023-06-22T10:07:08;5.75;;;4.40;;
40248;SDS011;25969;49.970;11.062;2023-06-22T10:17:09;5.22;;;4.53;;
40248;SDS011;25969;49.970;11.062;2023-06-22T10:27:10;6.78;;;4.40;;
40248;SDS011;25969;49.970;11.062;2023-06-22T10:37:11;8.23;;;4.57;;
40248;SDS011;25969;49.970;11.062;2023-06-22T10:47:12;10.52;;;4.63;;
40248;SDS011;25969;49.970;11.062;2023-06-22T10:57:13;5.63;;;3.88;;
40248;SDS011;25969;49.970;11.062;2023-06-22T11:07:14;4.68;;;4.22;;
40248;SDS011;25969;49.970;11.062;2023-06-22T11:17:15;6.97;;;3.67;;
40248;SDS011;25969;49.970;11.062;2023-06-22T11:27:16;9.90;;;4.10;;
40248;SDS011;25969;49.970;11.062;2023-06-22T11:37:17;6.05;;;3.95;;
40248;SDS011;25969;49.970;11.062;2023-06-22T11:47:18;6.93;;;3.65;;
40248;SDS011;25969;49.970;11.062;2023-06-22T11:57:18;4.63;;;3.85;;
40248;SDS011;25969;49.970;11.062;2023-06-22T12:07:19;5.22;;;3.88;;
40248;SDS011;25969;49.970;11.062;2023-06-22T12:17:20;6.13;;;3.93;;
40248;SDS011;25969;49.970;11.062;2023-06-22T12:27:21;7.30;;;4.00;;
40248;SDS011;25969;49.970;11.062;2023-06-22T12:37:22;7.17;;;3.63;;
40248;SDS011;25969;49.970;11.062;2023-06-22T12:47:23;9.15;;;4.40;;
40248;SDS011;25969;49.970;11.062;2023-06-22T12:57:25;11.25;;;4.32;;
40248;SDS011;25969;49.970;11.062;2023-06-22T13:07:25;9.23;;;4.50;;
40248;SDS011;25969;49.970;11.062;2023-06-22T13:17:26;9.00;;;4.83;;
40248;SDS011;25969;49.970;11.062;2023-06-22T13:27:27;9.27;;;4.55;;
40248;SDS011;25969;49.970;11.062;2023-06-22T13:37:28;7.35;;;4.50;;
40248;SDS011;25969;49.970;11.062;2023-06-22T13:47:29;7.87;;;4.40;;
40248;SDS011;25969;49.970;11.062;2023-06-22T13:57:30;8.63;;;4.50;;
40248;SDS011;25969;49.970;11.062;2023-06-22T14:07:31;10.35;;;5.88;;
40248;SDS011;25969;49.970;11.062;2023-06-22T14:17:32;10.50;;;6.18;;
40248;SDS011;25969;49.970;11.062;2023-06-22T14:27:32;9.35;;;5.13;;
40248;SDS011;25969;49.970;11.062;2023-06-22T14:37:33;11.43;;;5.20;;
40248;SDS011;25969;49.970;11.062;2023-06-22T14:47:34;9.20;;;5.30;;
40248;SDS011;25969;49.970;11.062;2023-06-22T14:57:35;8.13;;;4.80;;
40248;SDS011;25969;49.970;11.062;2023-06-22T15:07:35;12.60;;;5.20;;
40248;SDS011;25969;49.970;11.062;2023-06-22T15:17:36;10.02;;;5.05;;
40248;SDS011;25969;49.970;11.062;2023-06-22T15:27:37;13.93;;;5.00;;
40248;SDS011;25969;49.970;11.062;2023-06-22T15:37:38;11.82;;;5.32;;
40248;SDS011;25969;49.970;11.062;2023-06-22T15:47:42;13.95;;;5.47;;
40248;SDS011;25969;49.970;11.062;2023-06-22T15:57:43;10.93;;;4.85;;
40248;SDS011;25969;49.970;11.062;2023-06-22T16:07:47;13.00;;;5.03;;
40248;SDS011;25969;49.970;11.062;2023-06-22T16:17:48;14.93;;;4.85;;
40248;SDS011;25969;49.970;11.062;2023-06-22T16:27:49;11.00;;;4.95;;
40248;SDS011;25969;49.970;11.062;2023-06-22T16:37:49;13.70;;;5.20;;
40248;SDS011;25969;49.970;11.062;2023-06-22T16:47:51;12.65;;;4.20;;
40248;SDS011;25969;49.970;11.062;2023-06-22T16:57:51;8.90;;;4.75;;
40248;SDS011;25969;49.970;11.062;2023-06-22T17:07:53;13.18;;;4.13;;
40248;SDS011;25969;49.970;11.062;2023-06-22T17:17:57;14.05;;;4.70;;
40248;SDS011;25969;49.970;11.062;2023-06-22T17:28:00;11.98;;;4.53;;
40248;SDS011;25969;49.970;11.062;2023-06-22T17:38:02;11.57;;;4.82;;
40248;SDS011;25969;49.970;11.062;2023-06-22T17:48:03;13.63;;;6.25;;
40248;SDS011;25969;49.970;11.062;2023-06-22T17:58:08;11.38;;;4.88;;
40248;SDS011;25969;49.970;11.062;2023-06-22T18:08:09;18.35;;;6.88;;
40248;SDS011;25969;49.970;11.062;2023-06-22T18:18:10;19.45;;;5.40;;
40248;SDS011;25969;49.970;11.062;2023-06-22T18:28:13;11.48;;;4.85;;
40248;SDS011;25969;49.970;11.062;2023-06-22T18:38:15;47.85;;;7.15;;
40248;SDS011;25969;49.970;11.062;2023-06-22T18:48:22;16.55;;;5.30;;
40248;SDS011;25969;49.970;11.062;2023-06-22T18:58:24;15.55;;;5.45;;
40248;SDS011;25969;49.970;11.062;2023-06-22T19:08:25;12.15;;;5.18;;
40248;SDS011;25969;49.970;11.062;2023-06-22T19:18:39;9.57;;;5.20;;
40248;SDS011;25969;49.970;11.062;2023-06-22T19:28:47;18.23;;;5.70;;
40248;SDS011;25969;49.970;11.062;2023-06-22T19:38:49;18.67;;;6.05;;
40248;SDS011;25969;49.970;11.062;2023-06-22T19:48:50;23.35;;;5.05;;
40248;SDS011;25969;49.970;11.062;2023-06-22T19:58:51;16.75;;;5.18;;
40248;SDS011;25969;49.970;11.062;2023-06-22T20:08:55;19.38;;;6.13;;
40248;SDS011;25969;49.970;11.062;2023-06-22T20:19:08;19.08;;;6.65;;
40248;SDS011;25969;49.970;11.062;2023-06-22T20:29:26;15.13;;;4.97;;
40248;SDS011;25969;49.970;11.062;2023-06-22T20:39:32;13.65;;;5.10;;
40248;SDS011;25969;49.970;11.062;2023-06-22T20:49:33;20.30;;;7.40;;
40248;SDS011;25969;49.970;11.062;2023-06-22T20:59:35;17.05;;;4.88;;
40248;SDS011;25969;49.970;11.062;2023-06-22T21:19:37;15.93;;;5.60;;
40248;SDS011;25969;49.970;11.062;2023-06-22T21:39:38;18.83;;;6.20;;
